Time;durP1;ratioP1;P1;durP2;ratioP2;P2;SDS_P1;SDS_P2;PMS_P1;PMS_P2;Temp;Humidity;BMP_temperature;BMP_pressure;BME280_temperature;BME280_humidity;BME280_pressure;Samples;Min_cycle;Max_cycle;Signal;HPM_P1;HPM_P2
2021/06/24 00:00:23;;;;;;;4.53;2.58;;;;;;;;;;1492624;39;20028;-61
2021/06/24 00:01:25;;;;;;;5.93;2.88;;;;;;;;;;1492710;39;20294;-61
2021/06/24 00:02:26;;;;;;;8.20;2.85;;;;;;;;;;1492769;39;20064;-61
2021/06/24 00:03:30;;;;;;;3.75;2.60;;;;;;;;;;1492609;39;20132;-61
2021/06/24 00:04:31;;;;;;;4.20;2.45;;;;;;;;;;1492743;39;20034;-61
2021/06/24 00:05:32;;;;;;;6.70;2.90;;;;;;;;;;1492625;39;20411;-61
2021/06/24 00:06:33;;;;;;;3.30;2.22;;;;;;;;;;1492629;39;20112;-61
2021/06/24 00:07:35;;;;;;;5.68;2.42;;;;;;;;;;1492669;39;20036;-61
2021/06/24 00:08:38;;;;;;;5.63;2.60;;;;;;;;;;1492505;39;20427;-60
2021/06/24 00:09:48;;;;;;;4.75;2.58;;;;;;;;;;1492645;39;20032;-60
2021/06/24 00:10:51;;;;;;;5.85;2.70;;;;;;;;;;1492769;39;20039;-61
2021/06/24 00:11:53;;;;;;;5.60;3.00;;;;;;;;;;1492672;39;20050;-61
2021/06/24 00:12:53;;;;;;;6.97;2.78;;;;;;;;;;1492518;39;20034;-60
2021/06/24 00:13:55;;;;;;;5.18;2.70;;;;;;;;;;1492552;39;20035;-61
2021/06/24 00:14:56;;;;;;;5.25;3.05;;;;;;;;;;1492758;39;20065;-61
2021/06/24 00:15:58;;;;;;;5.72;2.80;;;;;;;;;;1492775;39;20132;-61
2021/06/24 00:16:59;;;;;;;5.00;2.88;;;;;;;;;;1492749;39;20027;-61
2021/06/24 00:18:01;;;;;;;5.10;2.97;;;;;;;;;;1492596;39;20032;-59
2021/06/24 00:19:02;;;;;;;5.53;2.97;;;;;;;;;;1492521;39;20116;-60
2021/06/24 00:20:05;;;;;;;4.47;2.45;;;;;;;;;;1492576;39;20380;-59
2021/06/24 00:21:07;;;;;;;5.30;2.88;;;;;;;;;;1492817;39;20104;-61
2021/06/24 00:22:09;;;;;;;6.60;2.85;;;;;;;;;;1492762;39;20042;-60
2021/06/24 00:23:10;;;;;;;4.80;2.90;;;;;;;;;;1492732;39;20028;-61
2021/06/24 00:24:14;;;;;;;7.78;3.22;;;;;;;;;;1492551;39;20361;-61
2021/06/24 00:25:15;;;;;;;7.55;3.20;;;;;;;;;;1492713;39;20039;-61
2021/06/24 00:26:17;;;;;;;6.25;3.08;;;;;;;;;;1492552;39;20032;-61
2021/06/24 00:27:18;;;;;;;4.45;2.78;;;;;;;;;;1492727;39;20027;-61
2021/06/24 00:28:22;;;;;;;4.38;2.80;;;;;;;;;;1492424;39;20024;-61
2021/06/24 00:29:23;;;;;;;4.68;2.67;;;;;;;;;;1492531;39;20310;-60
2021/06/24 00:30:25;;;;;;;5.75;3.00;;;;;;;;;;1492509;39;20028;-61
2021/06/24 00:31:26;;;;;;;6.03;2.67;;;;;;;;;;1492503;39;20032;-61
2021/06/24 00:32:29;;;;;;;5.65;2.90;;;;;;;;;;1492568;39;20024;-61
2021/06/24 00:33:34;;;;;;;4.07;2.60;;;;;;;;;;1492493;39;20359;-61
2021/06/24 00:34:35;;;;;;;5.75;3.10;;;;;;;;;;1492499;39;20034;-61
2021/06/24 00:35:40;;;;;;;5.78;3.22;;;;;;;;;;1492539;39;20030;-61
2021/06/24 00:36:41;;;;;;;6.68;3.10;;;;;;;;;;1492832;39;20108;-61
2021/06/24 00:37:43;;;;;;;5.05;3.00;;;;;;;;;;1493205;39;20121;-61
2021/06/24 00:38:44;;;;;;;6.97;3.20;;;;;;;;;;1493215;39;21360;-60
2021/06/24 00:39:48;;;;;;;4.55;3.00;;;;;;;;;;1493199;39;20044;-61
2021/06/24 00:40:50;;;;;;;5.97;3.30;;;;;;;;;;1493326;39;20032;-61
2021/06/24 00:41:51;;;;;;;7.35;3.38;;;;;;;;;;1493364;39;20024;-61
2021/06/24 00:42:53;;;;;;;5.05;3.03;;;;;;;;;;1493186;39;20042;-61
2021/06/24 00:43:54;;;;;;;7.05;3.10;;;;;;;;;;1493383;39;20035;-60
2021/06/24 00:44:56;;;;;;;4.68;2.85;;;;;;;;;;1493191;39;20031;-60
2021/06/24 00:45:57;;;;;;;6.35;3.42;;;;;;;;;;1493346;39;20024;-59
2021/06/24 00:46:59;;;;;;;7.13;3.08;;;;;;;;;;1493339;39;20395;-61
2021/06/24 00:48:01;;;;;;;7.90;3.17;;;;;;;;;;1493141;39;20028;-61
2021/06/24 00:49:03;;;;;;;7.78;3.40;;;;;;;;;;1493046;39;20174;-61
2021/06/24 00:50:06;;;;;;;8.32;3.13;;;;;;;;;;1493134;39;20272;-61
2021/06/24 00:51:08;;;;;;;6.85;3.08;;;;;;;;;;1493131;39;20401;-61
2021/06/24 00:52:09;;;;;;;5.05;3.50;;;;;;;;;;1493142;39;20032;-61
2021/06/24 00:53:11;;;;;;;5.38;3.58;;;;;;;;;;1493286;39;20123;-61
2021/06/24 00:54:18;;;;;;;7.80;3.40;;;;;;;;;;1493172;39;20032;-61
2021/06/24 00:56:41;;;;;;;4.68;3.10;;;;;;;;;;1493075;39;20043;-60
2021/06/24 00:57:42;;;;;;;6.60;3.30;;;;;;;;;;1493124;39;20412;-61
2021/06/24 00:58:44;;;;;;;6.88;3.40;;;;;;;;;;1493071;39;20023;-59
2021/06/24 00:59:44;;;;;;;5.72;3.25;;;;;;;;;;1493123;39;20402;-59
2021/06/24 01:00:49;;;;;;;6.30;3.60;;;;;;;;;;1493337;39;20024;-61
2021/06/24 01:01:50;;;;;;;7.38;3.30;;;;;;;;;;1493358;39;20036;-61
2021/06/24 01:02:52;;;;;;;7.13;3.63;;;;;;;;;;1493333;39;20044;-61
2021/06/24 01:03:53;;;;;;;6.35;3.42;;;;;;;;;;1493348;39;20036;-61
2021/06/24 01:04:55;;;;;;;6.38;3.45;;;;;;;;;;1493165;39;20028;-61
2021/06/24 01:05:55;;;;;;;6.28;3.78;;;;;;;;;;1493065;39;20024;-61
2021/06/24 01:06:58;;;;;;;8.02;3.70;;;;;;;;;;1493082;39;20479;-61
2021/06/24 01:07:58;;;;;;;9.45;3.95;;;;;;;;;;1493304;39;20039;-61
2021/06/24 01:09:00;;;;;;;6.30;3.42;;;;;;;;;;1493035;39;20101;-60
2021/06/24 01:10:02;;;;;;;5.07;3.25;;;;;;;;;;1493319;39;20028;-61
2021/06/24 01:11:06;;;;;;;6.10;3.67;;;;;;;;;;1493294;39;20052;-60
2021/06/24 01:12:09;;;;;;;6.55;3.45;;;;;;;;;;1493281;39;20028;-60
2021/06/24 01:13:12;;;;;;;6.00;3.30;;;;;;;;;;1493240;39;20036;-59
2021/06/24 01:14:13;;;;;;;8.05;3.30;;;;;;;;;;1493311;39;20112;-61
2021/06/24 01:15:15;;;;;;;8.63;4.07;;;;;;;;;;1493170;39;20028;-61
2021/06/24 01:16:17;;;;;;;7.68;3.42;;;;;;;;;;1493085;39;20028;-61
2021/06/24 01:17:19;;;;;;;6.00;3.05;;;;;;;;;;1493151;39;20036;-61
2021/06/24 01:18:19;;;;;;;5.47;3.08;;;;;;;;;;1493305;39;20032;-61
2021/06/24 01:19:21;;;;;;;4.95;3.10;;;;;;;;;;1493248;39;20035;-59
2021/06/24 01:20:24;;;;;;;7.70;3.70;;;;;;;;;;1493144;39;20380;-61
2021/06/24 01:21:26;;;;;;;7.13;3.63;;;;;;;;;;1493355;39;20028;-61
2021/06/24 01:22:26;;;;;;;7.00;3.78;;;;;;;;;;1493300;39;20036;-60
2021/06/24 01:23:28;;;;;;;8.10;3.50;;;;;;;;;;1493244;39;20380;-59
2021/06/24 01:24:31;;;;;;;6.18;3.63;;;;;;;;;;1493304;39;20071;-59
2021/06/24 01:25:34;;;;;;;8.65;3.70;;;;;;;;;;1493049;39;20039;-61
2021/06/24 01:26:37;;;;;;;7.95;3.83;;;;;;;;;;1493106;39;20039;-59
2021/06/24 01:27:39;;;;;;;6.63;3.30;;;;;;;;;;1493131;39;20117;-59
2021/06/24 01:28:40;;;;;;;7.70;4.07;;;;;;;;;;1493048;39;20039;-60
2021/06/24 01:29:42;;;;;;;4.35;3.03;;;;;;;;;;1493254;39;20043;-61
2021/06/24 01:30:43;;;;;;;6.88;3.03;;;;;;;;;;1493029;39;20035;-59
2021/06/24 01:31:45;;;;;;;8.40;3.17;;;;;;;;;;1493032;39;20391;-61
2021/06/24 01:32:46;;;;;;;4.32;3.20;;;;;;;;;;1493254;39;20030;-59
2021/06/24 01:33:49;;;;;;;6.60;3.50;;;;;;;;;;1493126;39;20034;-59
2021/06/24 01:34:50;;;;;;;6.85;3.80;;;;;;;;;;1493152;39;20050;-61
2021/06/24 01:35:57;;;;;;;5.07;3.30;;;;;;;;;;1493103;39;20035;-61
2021/06/24 01:36:58;;;;;;;7.15;3.42;;;;;;;;;;1493312;39;20034;-61
2021/06/24 01:38:01;;;;;;;6.35;3.50;;;;;;;;;;1493003;39;20035;-59
2021/06/24 01:39:04;;;;;;;5.68;3.50;;;;;;;;;;1493166;39;20036;-61
2021/06/24 01:40:10;;;;;;;6.57;3.28;;;;;;;;;;1493042;39;20024;-59
2021/06/24 01:41:11;;;;;;;6.40;3.30;;;;;;;;;;1493054;39;20111;-61
2021/06/24 01:42:14;;;;;;;6.95;3.35;;;;;;;;;;1493137;39;20109;-60
2021/06/24 01:43:15;;;;;;;5.28;3.15;;;;;;;;;;1493023;39;20028;-61
2021/06/24 01:44:28;;;;;;;7.40;3.25;;;;;;;;;;1493199;39;20038;-61
2021/06/24 01:45:30;;;;;;;6.00;3.13;;;;;;;;;;1493090;39;20028;-61
2021/06/24 01:46:32;;;;;;;5.68;3.08;;;;;;;;;;1493020;39;20483;-60
2021/06/24 01:47:33;;;;;;;5.63;2.72;;;;;;;;;;1493215;39;20024;-61
2021/06/24 01:48:35;;;;;;;7.65;3.30;;;;;;;;;;1493166;39;20023;-60
2021/06/24 01:49:36;;;;;;;6.35;3.00;;;;;;;;;;1493219;39;20075;-61
2021/06/24 01:50:37;;;;;;;4.53;3.03;;;;;;;;;;1493002;39;20040;-61
2021/06/24 01:51:38;;;;;;;6.18;2.80;;;;;;;;;;1493018;39;20299;-61
2021/06/24 01:52:41;;;;;;;10.13;2.92;;;;;;;;;;1493022;39;20024;-61
2021/06/24 01:53:42;;;;;;;5.57;2.88;;;;;;;;;;1492968;39;20035;-61
2021/06/24 01:54:46;;;;;;;6.00;2.70;;;;;;;;;;1493110;39;20024;-59
2021/06/24 01:55:49;;;;;;;4.00;2.60;;;;;;;;;;1493170;39;20027;-59
2021/06/24 01:56:51;;;;;;;7.00;2.92;;;;;;;;;;1493194;39;20108;-61
2021/06/24 01:57:52;;;;;;;4.55;2.65;;;;;;;;;;1493186;39;20031;-59
2021/06/24 01:58:54;;;;;;;5.38;2.75;;;;;;;;;;1493196;39;20036;-60
2021/06/24 01:59:55;;;;;;;7.28;2.85;;;;;;;;;;1493166;39;20137;-61
2021/06/24 02:00:58;;;;;;;5.03;2.40;;;;;;;;;;1493186;39;20369;-59
2021/06/24 02:01:59;;;;;;;6.28;3.08;;;;;;;;;;1493088;39;20024;-59
2021/06/24 02:03:12;;;;;;;3.42;2.58;;;;;;;;;;1493223;39;20028;-59
2021/06/24 02:04:13;;;;;;;4.13;2.60;;;;;;;;;;1492964;39;20030;-60
2021/06/24 02:05:15;;;;;;;4.80;2.30;;;;;;;;;;1493073;39;20028;-61
2021/06/24 02:06:16;;;;;;;3.60;2.33;;;;;;;;;;1492938;39;20032;-61
2021/06/24 02:07:17;;;;;;;5.78;2.63;;;;;;;;;;1492907;39;20030;-59
2021/06/24 02:08:20;;;;;;;3.72;2.25;;;;;;;;;;1492961;39;20511;-61
2021/06/24 02:09:22;;;;;;;7.50;2.78;;;;;;;;;;1492880;39;20039;-60
2021/06/24 02:10:23;;;;;;;5.55;2.92;;;;;;;;;;1492955;39;20024;-61
2021/06/24 02:11:26;;;;;;;5.95;2.60;;;;;;;;;;1492929;39;20031;-61
2021/06/24 02:12:30;;;;;;;5.75;2.50;;;;;;;;;;1492962;39;20081;-61
2021/06/24 02:13:32;;;;;;;3.92;2.60;;;;;;;;;;1492882;39;20284;-59
2021/06/24 02:14:33;;;;;;;8.35;2.75;;;;;;;;;;1492951;39;20387;-61
2021/06/24 02:15:35;;;;;;;3.95;2.58;;;;;;;;;;1492991;39;20069;-61
2021/06/24 02:16:42;;;;;;;4.57;2.28;;;;;;;;;;1492968;39;20149;-59
2021/06/24 02:17:58;;;;;;;5.22;2.42;;;;;;;;;;1492957;39;20035;-59
2021/06/24 02:18:59;;;;;;;3.95;2.00;;;;;;;;;;1493066;39;20127;-60
2021/06/24 02:20:01;;;;;;;3.17;2.50;;;;;;;;;;1492960;39;20041;-60
2021/06/24 02:21:02;;;;;;;5.97;2.45;;;;;;;;;;1493124;39;20034;-61
2021/06/24 02:22:04;;;;;;;4.95;2.53;;;;;;;;;;1493076;39;20032;-60
2021/06/24 02:23:05;;;;;;;4.22;2.17;;;;;;;;;;1492907;39;20391;-61
2021/06/24 02:24:07;;;;;;;4.75;2.28;;;;;;;;;;1493106;39;20028;-61
2021/06/24 02:25:10;;;;;;;7.30;2.80;;;;;;;;;;1492929;39;20112;-61
2021/06/24 02:26:12;;;;;;;4.72;2.45;;;;;;;;;;1492947;39;20032;-61
2021/06/24 02:27:15;;;;;;;3.67;2.45;;;;;;;;;;1493100;39;20142;-61
2021/06/24 02:28:16;;;;;;;4.30;2.38;;;;;;;;;;1493085;39;20039;-61
2021/06/24 02:29:17;;;;;;;4.45;2.60;;;;;;;;;;1492868;39;20035;-60
2021/06/24 02:30:20;;;;;;;4.68;2.45;;;;;;;;;;1493102;39;20028;-61
2021/06/24 02:31:21;;;;;;;4.45;2.22;;;;;;;;;;1492892;39;20067;-59
2021/06/24 02:32:22;;;;;;;4.47;2.40;;;;;;;;;;1493104;39;20031;-59
2021/06/24 02:33:25;;;;;;;7.35;2.95;;;;;;;;;;1493060;39;20027;-61
2021/06/24 02:34:26;;;;;;;6.13;2.38;;;;;;;;;;1493052;39;20031;-59
2021/06/24 02:35:29;;;;;;;4.75;2.45;;;;;;;;;;1493124;39;20044;-61
2021/06/24 02:36:30;;;;;;;7.03;2.92;;;;;;;;;;1492878;39;20032;-61
2021/06/24 02:37:32;;;;;;;5.75;2.80;;;;;;;;;;1492896;39;20112;-61
2021/06/24 02:38:33;;;;;;;5.63;2.63;;;;;;;;;;1492905;39;20388;-59
2021/06/24 02:39:35;;;;;;;4.43;2.83;;;;;;;;;;1492839;39;20042;-60
2021/06/24 02:40:36;;;;;;;5.40;2.55;;;;;;;;;;1493089;39;20123;-61
2021/06/24 02:41:38;;;;;;;5.65;2.70;;;;;;;;;;1493087;39;20056;-61
2021/06/24 02:42:41;;;;;;;5.60;2.97;;;;;;;;;;1492961;39;20031;-61
2021/06/24 02:43:44;;;;;;;4.97;2.85;;;;;;;;;;1493115;39;20047;-61
2021/06/24 02:44:45;;;;;;;4.40;2.85;;;;;;;;;;1492864;39;20284;-61
2021/06/24 02:45:46;;;;;;;5.03;2.55;;;;;;;;;;1493111;39;20034;-59
2021/06/24 02:46:47;;;;;;;5.10;2.90;;;;;;;;;;1492845;39;20112;-61
2021/06/24 02:47:49;;;;;;;6.63;2.97;;;;;;;;;;1492921;39;20113;-59
2021/06/24 02:48:50;;;;;;;6.15;2.92;;;;;;;;;;1492962;39;20035;-61
2021/06/24 02:49:52;;;;;;;4.78;2.80;;;;;;;;;;1492891;39;20098;-61
2021/06/24 02:50:53;;;;;;;5.88;3.20;;;;;;;;;;1492844;39;20097;-61
2021/06/24 02:51:55;;;;;;;4.80;3.20;;;;;;;;;;1493068;39;20039;-61
2021/06/24 02:52:56;;;;;;;7.03;3.22;;;;;;;;;;1492843;39;20028;-59
2021/06/24 02:53:57;;;;;;;5.13;2.63;;;;;;;;;;1492235;39;20032;-59
2021/06/24 02:54:58;;;;;;;6.78;2.65;;;;;;;;;;1492561;39;20108;-59
2021/06/24 02:56:00;;;;;;;5.53;2.50;;;;;;;;;;1493046;39;20036;-61
2021/06/24 02:57:02;;;;;;;5.70;2.80;;;;;;;;;;1492827;39;20112;-61
2021/06/24 02:58:05;;;;;;;4.75;2.70;;;;;;;;;;1493008;39;20036;-61
2021/06/24 02:59:06;;;;;;;3.67;2.80;;;;;;;;;;1492585;39;20047;-60
2021/06/24 03:00:10;;;;;;;4.72;2.85;;;;;;;;;;1492943;39;20044;-61
2021/06/24 03:01:10;;;;;;;3.92;2.53;;;;;;;;;;1492919;39;20031;-59
2021/06/24 03:02:13;;;;;;;5.15;2.70;;;;;;;;;;1492862;39;20030;-59
2021/06/24 03:03:13;;;;;;;3.78;2.28;;;;;;;;;;1492824;39;20411;-61
2021/06/24 03:04:20;;;;;;;3.63;2.50;;;;;;;;;;1492985;39;20036;-61
2021/06/24 03:05:21;;;;;;;4.60;2.72;;;;;;;;;;1492513;39;20040;-59
2021/06/24 03:06:23;;;;;;;5.07;2.65;;;;;;;;;;1492357;39;20064;-59
2021/06/24 03:07:24;;;;;;;4.63;2.78;;;;;;;;;;1492932;39;20471;-59
2021/06/24 03:08:26;;;;;;;4.78;2.50;;;;;;;;;;1492747;39;20028;-59
2021/06/24 03:09:27;;;;;;;4.43;2.50;;;;;;;;;;1493023;39;20024;-59
2021/06/24 03:10:29;;;;;;;4.20;2.50;;;;;;;;;;1492825;39;20065;-59
2021/06/24 03:11:30;;;;;;;5.90;2.60;;;;;;;;;;1492787;39;20055;-59
2021/06/24 03:12:32;;;;;;;5.15;2.58;;;;;;;;;;1492928;39;20040;-58
2021/06/24 03:13:34;;;;;;;5.95;2.60;;;;;;;;;;1492739;39;20024;-59
2021/06/24 03:14:36;;;;;;;4.30;2.35;;;;;;;;;;1492835;39;20038;-59
2021/06/24 03:15:37;;;;;;;6.25;3.05;;;;;;;;;;1493035;39;20028;-59
2021/06/24 03:16:40;;;;;;;4.75;2.55;;;;;;;;;;1492778;39;20023;-59
2021/06/24 03:17:40;;;;;;;4.32;2.50;;;;;;;;;;1492938;39;20119;-59
2021/06/24 03:18:43;;;;;;;6.22;2.78;;;;;;;;;;1492695;39;20120;-59
2021/06/24 03:19:44;;;;;;;5.43;2.53;;;;;;;;;;1492841;39;20038;-59
2021/06/24 03:20:46;;;;;;;5.55;2.83;;;;;;;;;;1492802;39;20031;-59
2021/06/24 03:21:46;;;;;;;4.53;2.78;;;;;;;;;;1492719;39;20392;-59
2021/06/24 03:22:48;;;;;;;8.13;2.95;;;;;;;;;;1492961;39;20038;-59
2021/06/24 03:23:50;;;;;;;6.57;2.60;;;;;;;;;;1492817;39;20127;-59
2021/06/24 03:24:52;;;;;;;4.55;2.65;;;;;;;;;;1493002;39;20032;-59
2021/06/24 03:25:54;;;;;;;4.72;2.80;;;;;;;;;;1492760;39;20079;-59
2021/06/24 03:26:56;;;;;;;5.63;2.58;;;;;;;;;;1492748;39;20327;-59
2021/06/24 03:27:57;;;;;;;3.97;2.63;;;;;;;;;;1492745;39;20019;-59
2021/06/24 03:29:00;;;;;;;4.70;2.45;;;;;;;;;;1492855;39;20284;-58
2021/06/24 03:30:02;;;;;;;4.88;2.78;;;;;;;;;;1493022;39;20028;-59
2021/06/24 03:31:04;;;;;;;5.60;2.60;;;;;;;;;;1492722;39;20109;-59
2021/06/24 03:32:06;;;;;;;4.10;2.20;;;;;;;;;;1492764;39;20027;-59
2021/06/24 03:33:08;;;;;;;5.18;2.70;;;;;;;;;;1492895;39;20028;-59
2021/06/24 03:34:09;;;;;;;4.63;2.42;;;;;;;;;;1492896;39;20112;-59
2021/06/24 03:35:12;;;;;;;7.00;2.40;;;;;;;;;;1492943;39;20364;-59
2021/06/24 03:36:15;;;;;;;4.93;2.47;;;;;;;;;;1492756;39;20392;-59
2021/06/24 03:37:16;;;;;;;3.78;2.30;;;;;;;;;;1492207;39;20599;-59
2021/06/24 03:38:18;;;;;;;3.95;2.35;;;;;;;;;;1492421;39;20036;-59
2021/06/24 03:39:18;;;;;;;7.53;2.40;;;;;;;;;;1492890;39;20073;-59
2021/06/24 03:40:20;;;;;;;5.05;2.13;;;;;;;;;;1492908;39;20139;-59
2021/06/24 03:41:23;;;;;;;6.32;2.10;;;;;;;;;;1492900;39;20064;-59
2021/06/24 03:42:25;;;;;;;4.13;2.40;;;;;;;;;;1492877;39;20044;-59
2021/06/24 03:43:27;;;;;;;5.70;2.22;;;;;;;;;;1492774;39;20279;-59
2021/06/24 03:44:30;;;;;;;5.25;2.58;;;;;;;;;;1492681;39;20039;-59
2021/06/24 03:45:31;;;;;;;7.60;2.20;;;;;;;;;;1492734;39;20028;-59
2021/06/24 03:46:33;;;;;;;5.05;2.50;;;;;;;;;;1492881;39;20028;-59
2021/06/24 03:47:34;;;;;;;5.30;2.25;;;;;;;;;;1492710;39;20391;-59
2021/06/24 03:48:36;;;;;;;3.70;1.98;;;;;;;;;;1492854;39;20027;-59
2021/06/24 03:49:37;;;;;;;3.95;2.00;;;;;;;;;;1492663;39;20076;-59
2021/06/24 03:50:39;;;;;;;5.38;2.53;;;;;;;;;;1492637;39;20031;-59
2021/06/24 03:51:40;;;;;;;3.88;2.03;;;;;;;;;;1492696;39;20247;-59
2021/06/24 03:52:42;;;;;;;7.03;2.05;;;;;;;;;;1492634;39;20031;-59
2021/06/24 03:53:43;;;;;;;4.82;2.22;;;;;;;;;;1492614;39;20020;-59
2021/06/24 03:54:45;;;;;;;5.35;2.08;;;;;;;;;;1492814;39;20093;-59
2021/06/24 03:55:46;;;;;;;7.10;2.50;;;;;;;;;;1492643;39;20039;-59
2021/06/24 03:56:48;;;;;;;5.15;2.20;;;;;;;;;;1492628;39;20031;-59
2021/06/24 03:57:49;;;;;;;4.85;2.30;;;;;;;;;;1492861;39;20035;-60
2021/06/24 03:58:51;;;;;;;5.15;2.20;;;;;;;;;;1492812;39;20299;-59
2021/06/24 03:59:53;;;;;;;5.22;2.30;;;;;;;;;;1492624;39;20032;-59
2021/06/24 04:00:55;;;;;;;4.00;2.20;;;;;;;;;;1492612;39;20028;-59
2021/06/24 04:01:56;;;;;;;11.65;2.10;;;;;;;;;;1492892;39;20039;-59
2021/06/24 04:02:58;;;;;;;5.47;1.90;;;;;;;;;;1492671;39;20028;-58
2021/06/24 04:03:58;;;;;;;3.38;2.10;;;;;;;;;;1492794;39;20028;-59
2021/06/24 04:05:00;;;;;;;5.57;2.30;;;;;;;;;;1492615;39;20032;-58
2021/06/24 04:06:01;;;;;;;3.15;1.92;;;;;;;;;;1492760;39;20035;-59
2021/06/24 04:07:04;;;;;;;4.00;2.00;;;;;;;;;;1492992;39;20036;-57
2021/06/24 04:08:07;;;;;;;4.75;2.20;;;;;;;;;;1492610;39;20032;-56
2021/06/24 04:09:09;;;;;;;5.57;2.50;;;;;;;;;;1492747;39;20036;-56
2021/06/24 04:10:11;;;;;;;5.18;2.17;;;;;;;;;;1492612;39;20283;-57
2021/06/24 04:11:13;;;;;;;4.10;2.28;;;;;;;;;;1492578;39;20303;-57
2021/06/24 04:12:14;;;;;;;2.85;2.17;;;;;;;;;;1493448;39;20039;-57
2021/06/24 04:13:16;;;;;;;5.28;1.90;;;;;;;;;;1493408;39;20048;-57
2021/06/24 04:14:17;;;;;;;6.20;2.58;;;;;;;;;;1493256;39;20088;-57
2021/06/24 04:15:24;;;;;;;3.10;2.22;;;;;;;;;;1493316;39;20024;-57
2021/06/24 04:16:25;;;;;;;3.80;2.00;;;;;;;;;;1493402;39;20035;-57
2021/06/24 04:17:27;;;;;;;3.28;2.00;;;;;;;;;;1493337;39;20028;-56
2021/06/24 04:18:27;;;;;;;6.70;2.20;;;;;;;;;;1493162;39;20483;-57
2021/06/24 04:19:29;;;;;;;3.80;2.03;;;;;;;;;;1493213;39;20024;-57
2021/06/24 04:20:31;;;;;;;2.83;2.05;;;;;;;;;;1493265;39;20446;-57
2021/06/24 04:21:33;;;;;;;5.78;2.10;;;;;;;;;;1493332;39;20040;-61
2021/06/24 04:22:33;;;;;;;4.43;2.30;;;;;;;;;;1493388;39;20028;-61
2021/06/24 04:23:35;;;;;;;4.47;2.00;;;;;;;;;;1493270;39;20032;-61
2021/06/24 04:24:36;;;;;;;4.63;2.17;;;;;;;;;;1493216;39;20024;-60
2021/06/24 04:25:38;;;;;;;4.18;2.40;;;;;;;;;;1493243;39;20023;-61
2021/06/24 04:26:39;;;;;;;4.32;2.20;;;;;;;;;;1493214;39;20384;-61
2021/06/24 04:27:41;;;;;;;4.22;2.25;;;;;;;;;;1493208;39;20112;-62
2021/06/24 04:28:42;;;;;;;6.50;2.58;;;;;;;;;;1493227;39;20093;-61
2021/06/24 04:29:44;;;;;;;5.15;1.90;;;;;;;;;;1493452;39;20032;-60
2021/06/24 04:30:46;;;;;;;4.60;2.08;;;;;;;;;;1493206;39;20027;-61
2021/06/24 04:31:48;;;;;;;4.07;2.47;;;;;;;;;;1493257;39;20032;-61
2021/06/24 04:32:52;;;;;;;7.35;2.50;;;;;;;;;;1493214;39;20028;-61
2021/06/24 04:33:56;;;;;;;3.33;1.85;;;;;;;;;;1493194;39;20039;-61
2021/06/24 04:34:57;;;;;;;5.07;2.00;;;;;;;;;;1492665;39;20023;-61
2021/06/24 04:35:59;;;;;;;4.40;2.45;;;;;;;;;;1492686;39;20115;-61
2021/06/24 04:37:00;;;;;;;3.70;2.03;;;;;;;;;;1493249;39;20024;-61
2021/06/24 04:38:02;;;;;;;2.67;1.90;;;;;;;;;;1493225;39;20032;-60
2021/06/24 04:39:03;;;;;;;3.30;2.00;;;;;;;;;;1493141;39;20035;-61
2021/06/24 04:40:07;;;;;;;4.80;2.40;;;;;;;;;;1493372;39;20116;-61
2021/06/24 04:41:08;;;;;;;3.97;2.00;;;;;;;;;;1493489;39;20084;-61
2021/06/24 04:42:10;;;;;;;5.13;2.22;;;;;;;;;;1493386;39;20132;-61
2021/06/24 04:43:11;;;;;;;4.32;2.17;;;;;;;;;;1493328;39;20035;-61
2021/06/24 04:44:13;;;;;;;6.30;2.38;;;;;;;;;;1493243;39;20028;-61
2021/06/24 04:45:15;;;;;;;4.45;2.15;;;;;;;;;;1493178;39;20027;-61
2021/06/24 04:46:18;;;;;;;5.47;2.33;;;;;;;;;;1493205;39;20067;-62
2021/06/24 04:47:19;;;;;;;4.60;2.40;;;;;;;;;;1493251;39;20031;-61
2021/06/24 04:48:21;;;;;;;3.80;2.20;;;;;;;;;;1493409;39;20375;-61
2021/06/24 04:49:22;;;;;;;4.85;2.30;;;;;;;;;;1493160;39;20118;-61
2021/06/24 04:50:23;;;;;;;3.85;2.17;;;;;;;;;;1493281;39;20109;-61
2021/06/24 04:51:24;;;;;;;3.08;2.00;;;;;;;;;;1493475;39;20024;-61
2021/06/24 04:52:26;;;;;;;4.50;2.40;;;;;;;;;;1493394;39;20383;-60
2021/06/24 04:53:27;;;;;;;5.30;2.47;;;;;;;;;;1493265;39;20024;-61
2021/06/24 04:54:30;;;;;;;4.70;2.30;;;;;;;;;;1493086;39;20400;-61
2021/06/24 04:55:38;;;;;;;4.57;2.10;;;;;;;;;;1493124;39;20292;-61
2021/06/24 04:56:40;;;;;;;5.18;2.55;;;;;;;;;;1493389;39;20068;-61
2021/06/24 04:57:41;;;;;;;4.22;2.20;;;;;;;;;;1493411;39;20028;-61
2021/06/24 04:58:43;;;;;;;4.40;2.30;;;;;;;;;;1493305;39;20044;-61
2021/06/24 04:59:44;;;;;;;4.55;2.30;;;;;;;;;;1493286;39;20028;-61
2021/06/24 05:00:46;;;;;;;4.38;2.30;;;;;;;;;;1493152;39;20124;-61
2021/06/24 05:01:48;;;;;;;4.28;2.42;;;;;;;;;;1493222;39;20032;-61
2021/06/24 05:02:50;;;;;;;4.70;2.40;;;;;;;;;;1493396;39;20032;-61
2021/06/24 05:03:51;;;;;;;3.67;2.13;;;;;;;;;;1493333;39;20036;-61
2021/06/24 05:04:55;;;;;;;3.30;2.30;;;;;;;;;;1493420;39;20032;-61
2021/06/24 05:05:56;;;;;;;3.55;2.22;;;;;;;;;;1493398;39;20032;-61
2021/06/24 05:07:02;;;;;;;6.18;2.60;;;;;;;;;;1493116;39;20316;-61
2021/06/24 05:08:07;;;;;;;3.65;2.22;;;;;;;;;;1493130;39;20424;-61
2021/06/24 05:09:09;;;;;;;5.32;2.05;;;;;;;;;;1493166;39;20040;-61
2021/06/24 05:10:11;;;;;;;4.03;2.58;;;;;;;;;;1493149;39;20407;-65
2021/06/24 05:11:13;;;;;;;5.20;2.47;;;;;;;;;;1493317;39;20028;-61
2021/06/24 05:12:14;;;;;;;5.40;2.50;;;;;;;;;;1493207;39;20295;-61
2021/06/24 05:13:17;;;;;;;4.10;2.45;;;;;;;;;;1493189;39;20034;-61
2021/06/24 05:14:18;;;;;;;4.60;2.40;;;;;;;;;;1493268;39;20028;-61
2021/06/24 05:15:20;;;;;;;4.38;2.50;;;;;;;;;;1493201;39;20032;-61
2021/06/24 05:16:21;;;;;;;3.45;2.40;;;;;;;;;;1493293;39;20028;-61
2021/06/24 05:17:24;;;;;;;4.32;2.50;;;;;;;;;;1493087;39;20128;-61
2021/06/24 05:18:25;;;;;;;6.25;2.13;;;;;;;;;;1493076;39;20100;-61
2021/06/24 05:19:27;;;;;;;4.97;2.40;;;;;;;;;;1493106;39;20399;-61
2021/06/24 05:20:28;;;;;;;3.88;2.00;;;;;;;;;;1493136;39;20035;-61
2021/06/24 05:21:30;;;;;;;4.07;2.10;;;;;;;;;;1493115;39;20024;-61
2021/06/24 05:22:31;;;;;;;4.00;2.30;;;;;;;;;;1492960;39;20028;-61
2021/06/24 05:23:33;;;;;;;3.42;2.22;;;;;;;;;;1493366;39;20372;-61
2021/06/24 05:24:34;;;;;;;4.50;2.08;;;;;;;;;;1493097;39;20028;-61
2021/06/24 05:25:39;;;;;;;3.75;2.33;;;;;;;;;;1492593;39;20036;-60
2021/06/24 05:26:40;;;;;;;3.33;1.75;;;;;;;;;;1492699;39;20034;-61
2021/06/24 05:27:42;;;;;;;7.95;2.50;;;;;;;;;;1493261;39;20397;-61
2021/06/24 05:28:42;;;;;;;5.13;2.60;;;;;;;;;;1493063;39;20043;-61
2021/06/24 05:29:44;;;;;;;3.00;2.13;;;;;;;;;;1493302;39;20386;-62
2021/06/24 05:30:46;;;;;;;4.10;2.15;;;;;;;;;;1493146;39;20383;-61
2021/06/24 05:31:48;;;;;;;5.82;2.58;;;;;;;;;;1493283;39;20028;-61
2021/06/24 05:32:50;;;;;;;3.78;2.47;;;;;;;;;;1493374;39;20032;-61
2021/06/24 05:33:52;;;;;;;3.58;2.30;;;;;;;;;;1493076;39;20302;-61
2021/06/24 05:34:54;;;;;;;4.50;2.30;;;;;;;;;;1493015;39;20299;-62
2021/06/24 05:35:56;;;;;;;4.47;2.50;;;;;;;;;;1493087;39;20039;-62
2021/06/24 05:36:57;;;;;;;6.95;2.20;;;;;;;;;;1493341;39;20027;-62
2021/06/24 05:38:00;;;;;;;4.03;2.22;;;;;;;;;;1493076;39;20116;-62
2021/06/24 05:39:02;;;;;;;4.68;2.30;;;;;;;;;;1493163;39;20044;-61
2021/06/24 05:40:04;;;;;;;6.43;2.35;;;;;;;;;;1493029;39;20085;-62
2021/06/24 05:41:05;;;;;;;4.55;2.33;;;;;;;;;;1493273;39;20035;-61
2021/06/24 05:42:07;;;;;;;4.70;2.20;;;;;;;;;;1493081;39;20032;-60
2021/06/24 05:43:08;;;;;;;4.47;2.15;;;;;;;;;;1493060;39;20036;-61
2021/06/24 05:44:10;;;;;;;4.28;2.30;;;;;;;;;;1493220;39;20039;-61
2021/06/24 05:45:12;;;;;;;3.40;1.80;;;;;;;;;;1493278;39;20104;-61
2021/06/24 05:46:14;;;;;;;4.22;1.90;;;;;;;;;;1493242;39;20032;-61
2021/06/24 05:47:15;;;;;;;4.10;2.20;;;;;;;;;;1493134;39;20035;-62
2021/06/24 05:48:19;;;;;;;3.88;2.20;;;;;;;;;;1493431;39;20035;-58
2021/06/24 05:49:20;;;;;;;3.83;2.05;;;;;;;;;;1493203;39;20146;-58
2021/06/24 05:50:22;;;;;;;3.67;2.35;;;;;;;;;;1493048;39;20035;-59
2021/06/24 05:51:23;;;;;;;3.28;2.53;;;;;;;;;;1493115;39;20379;-57
2021/06/24 05:52:25;;;;;;;6.90;2.47;;;;;;;;;;1493331;39;20032;-60
2021/06/24 05:53:26;;;;;;;4.10;1.98;;;;;;;;;;1493225;39;20106;-61
2021/06/24 05:54:28;;;;;;;4.38;1.92;;;;;;;;;;1493003;39;20108;-61
2021/06/24 05:57:00;;;;;;;;;;;;;;;;;;1484512;40;20405;-61
2021/06/24 05:58:01;;;;;;;4.43;2.13;;;;;;;;;;1483902;40;19940;-61
2021/06/24 05:59:03;;;;;;;4.47;2.20;;;;;;;;;;1483869;39;20037;-62
2021/06/24 06:00:06;;;;;;;3.53;2.15;;;;;;;;;;1492991;39;20299;-61
2021/06/24 06:01:08;;;;;;;4.05;2.22;;;;;;;;;;1493200;39;20028;-62
2021/06/24 06:02:09;;;;;;;4.78;2.20;;;;;;;;;;1493000;39;20299;-62
2021/06/24 06:03:11;;;;;;;4.38;2.15;;;;;;;;;;1493192;39;20024;-62
2021/06/24 06:04:14;;;;;;;4.63;2.20;;;;;;;;;;1493134;39;20024;-62
2021/06/24 06:05:16;;;;;;;3.22;2.00;;;;;;;;;;1492950;39;20027;-61
2021/06/24 06:06:17;;;;;;;3.30;1.85;;;;;;;;;;1492980;39;20301;-60
2021/06/24 06:07:19;;;;;;;4.18;1.83;;;;;;;;;;1493382;39;20081;-57
2021/06/24 06:08:20;;;;;;;3.20;2.05;;;;;;;;;;1492966;39;20036;-58
2021/06/24 06:09:22;;;;;;;3.97;1.80;;;;;;;;;;1493108;39;20036;-58
2021/06/24 06:10:23;;;;;;;3.38;2.03;;;;;;;;;;1493173;39;20036;-57
2021/06/24 06:11:25;;;;;;;2.97;1.80;;;;;;;;;;1493010;39;20032;-57
2021/06/24 06:12:27;;;;;;;4.05;2.08;;;;;;;;;;1492961;39;20024;-57
2021/06/24 06:13:29;;;;;;;3.92;1.88;;;;;;;;;;1493113;39;20032;-57
2021/06/24 06:14:31;;;;;;;3.38;1.70;;;;;;;;;;1492935;39;20325;-58